Time;durP1;ratioP1;P1;durP2;ratioP2;P2;SDS_P1;SDS_P2;PMS_P1;PMS_P2;Temp;Humidity;BMP_temperature;BMP_pressure;BME280_temperature;BME280_humidity;BME280_pressure;Samples;Min_cycle;Max_cycle;Signal;HPM_P1;HPM_P2
2022/12/14 00:01:41;;;;;;;70.15;35.33;;;;;;;;;;5096292;27;20459;-75
2022/12/14 00:04:07;;;;;;;64.15;35.53;;;;;;;;;;5088796;27;20039;-75
2022/12/14 00:06:34;;;;;;;60.50;33.92;;;;;;;;;;5094103;27;20042;-75
2022/12/14 00:09:01;;;;;;;65.60;34.20;;;;;;;;;;5094047;27;20046;-75
2022/12/14 00:11:28;;;;;;;69.35;35.50;;;;;;;;;;5092899;27;20034;-75
2022/12/14 00:13:58;;;;;;;69.75;37.40;;;;;;;;;;5113094;27;20060;-75
2022/12/14 00:16:24;;;;;;;63.22;35.03;;;;;;;;;;5113386;27;20388;-75
2022/12/14 00:18:52;;;;;;;72.05;35.80;;;;;;;;;;5090244;27;20053;-75
2022/12/14 00:21:18;;;;;;;70.35;36.63;;;;;;;;;;5084038;27;20057;-75
2022/12/14 00:23:45;;;;;;;67.88;35.17;;;;;;;;;;5080289;27;20039;-75
2022/12/14 00:26:15;;;;;;;62.67;35.47;;;;;;;;;;5087682;27;21227;-76
2022/12/14 00:28:43;;;;;;;66.00;34.65;;;;;;;;;;5103724;27;20061;-75
2022/12/14 00:31:09;;;;;;;63.40;35.15;;;;;;;;;;5096997;27;20042;-75
2022/12/14 00:33:35;;;;;;;66.43;35.05;;;;;;;;;;5090516;27;20046;-76
2022/12/14 00:36:02;;;;;;;64.10;35.20;;;;;;;;;;5100975;27;20038;-76
2022/12/14 00:38:28;;;;;;;63.17;34.90;;;;;;;;;;5096620;27;20045;-76
2022/12/14 00:40:54;;;;;;;69.85;37.25;;;;;;;;;;5098693;27;20049;-76
2022/12/14 00:43:21;;;;;;;68.22;35.08;;;;;;;;;;5120529;27;20414;-76
2022/12/14 00:45:47;;;;;;;68.32;35.25;;;;;;;;;;5108179;27;20042;-75
2022/12/14 00:48:13;;;;;;;72.15;37.33;;;;;;;;;;5101036;27;20397;-76
2022/12/14 00:50:39;;;;;;;64.05;33.67;;;;;;;;;;5086849;27;20157;-75
2022/12/14 00:53:06;;;;;;;67.10;36.05;;;;;;;;;;5083471;27;20039;-75
2022/12/14 00:55:42;;;;;;;67.80;35.95;;;;;;;;;;5094930;27;20047;-75
2022/12/14 00:58:09;;;;;;;60.25;33.80;;;;;;;;;;5087694;27;20043;-75
2022/12/14 01:00:35;;;;;;;65.35;34.95;;;;;;;;;;5085374;27;20061;-75
2022/12/14 01:03:01;;;;;;;67.13;33.88;;;;;;;;;;5087377;27;20045;-75
2022/12/14 01:05:28;;;;;;;64.55;34.75;;;;;;;;;;5082407;27;20073;-75
2022/12/14 01:07:54;;;;;;;64.57;32.78;;;;;;;;;;5098038;27;20050;-75
2022/12/14 01:10:20;;;;;;;68.30;35.10;;;;;;;;;;5086310;27;20555;-76
2022/12/14 01:12:46;;;;;;;68.85;34.72;;;;;;;;;;5100715;27;20363;-75
2022/12/14 01:15:12;;;;;;;62.75;33.67;;;;;;;;;;5099684;27;20484;-75
2022/12/14 01:17:38;;;;;;;68.90;31.27;;;;;;;;;;5119338;27;20043;-75
2022/12/14 01:20:05;;;;;;;63.05;32.75;;;;;;;;;;5088274;27;20043;-75
2022/12/14 01:22:31;;;;;;;64.97;33.40;;;;;;;;;;5083396;27;20170;-75
2022/12/14 01:24:57;;;;;;;64.07;33.53;;;;;;;;;;5100043;27;20466;-76
2022/12/14 01:27:23;;;;;;;63.33;33.58;;;;;;;;;;5087806;27;20051;-75
2022/12/14 01:29:49;;;;;;;62.13;32.22;;;;;;;;;;5097188;27;20047;-76
2022/12/14 01:32:15;;;;;;;60.50;30.88;;;;;;;;;;5096137;27;20077;-76
2022/12/14 01:34:41;;;;;;;64.57;32.67;;;;;;;;;;5086802;27;20081;-76
2022/12/14 01:37:07;;;;;;;67.20;33.10;;;;;;;;;;5084700;27;20060;-76
2022/12/14 01:39:33;;;;;;;68.03;32.25;;;;;;;;;;5091463;27;20047;-75
2022/12/14 01:41:59;;;;;;;58.35;31.25;;;;;;;;;;5098175;27;21817;-75
2022/12/14 01:44:25;;;;;;;54.70;29.42;;;;;;;;;;5096946;27;20055;-76
2022/12/14 01:47:03;;;;;;;61.70;32.38;;;;;;;;;;5101282;27;20044;-76
2022/12/14 01:49:47;;;;;;;59.55;31.45;;;;;;;;;;5098057;27;20039;-76
2022/12/14 01:52:13;;;;;;;;;;;;;;;;;;5079464;27;20511;-75
2022/12/14 01:54:47;;;;;;;61.45;31.05;;;;;;;;;;5085221;27;19919;-75
2022/12/14 01:57:14;;;;;;;59.58;32.67;;;;;;;;;;5104668;27;20035;-77
2022/12/14 01:59:42;;;;;;;69.93;33.80;;;;;;;;;;5099143;27;20132;-75
2022/12/14 02:02:10;;;;;;;66.05;34.78;;;;;;;;;;5100752;27;20191;-75
2022/12/14 02:04:39;;;;;;;61.53;32.45;;;;;;;;;;5100529;27;20888;-75
2022/12/14 02:07:05;;;;;;;68.90;34.17;;;;;;;;;;5097153;27;20054;-77
2022/12/14 02:09:36;;;;;;;62.03;32.88;;;;;;;;;;5095743;27;20047;-76
2022/12/14 02:12:06;;;;;;;66.20;33.67;;;;;;;;;;5093989;27;20039;-75
2022/12/14 02:14:33;;;;;;;59.80;31.95;;;;;;;;;;5094078;27;20137;-75
2022/12/14 02:16:59;;;;;;;58.42;32.08;;;;;;;;;;5092219;27;20043;-76
2022/12/14 02:19:25;;;;;;;63.05;33.17;;;;;;;;;;5075501;27;20054;-75
2022/12/14 02:22:10;;;;;;;63.90;32.72;;;;;;;;;;5083868;27;20147;-75
2022/12/14 02:24:51;;;;;;;63.92;31.83;;;;;;;;;;5090241;27;20546;-76
2022/12/14 02:27:41;;;;;;;62.55;31.42;;;;;;;;;;5090622;27;20159;-76
2022/12/14 02:30:10;;;;;;;68.18;32.65;;;;;;;;;;5092620;27;20129;-76
2022/12/14 02:32:55;;;;;;;59.92;32.00;;;;;;;;;;5092754;27;20146;-76
2022/12/14 02:35:34;;;;;;;61.15;32.63;;;;;;;;;;5083201;27;20043;-76
2022/12/14 02:38:20;;;;;;;63.53;32.88;;;;;;;;;;5095848;27;20047;-76
2022/12/14 02:40:46;;;;;;;64.03;31.33;;;;;;;;;;5095030;27;20148;-76
2022/12/14 02:43:18;;;;;;;62.45;31.77;;;;;;;;;;5091057;27;20057;-76
2022/12/14 02:45:56;;;;;;;67.35;30.88;;;;;;;;;;5076367;27;20047;-76
2022/12/14 02:48:26;;;;;;;66.32;31.83;;;;;;;;;;5076188;27;20085;-77
2022/12/14 02:50:55;;;;;;;64.47;32.47;;;;;;;;;;5093676;27;20050;-77
2022/12/14 02:53:34;;;;;;;62.80;31.98;;;;;;;;;;5091461;27;20047;-77
2022/12/14 02:56:02;;;;;;;61.55;31.85;;;;;;;;;;5078086;27;20044;-77
2022/12/14 02:58:28;;;;;;;66.30;31.30;;;;;;;;;;5092967;27;20054;-77
2022/12/14 03:00:55;;;;;;;63.05;31.35;;;;;;;;;;5093343;27;21783;-77
2022/12/14 03:03:21;;;;;;;65.70;31.30;;;;;;;;;;5081202;27;20047;-77
2022/12/14 03:06:01;;;;;;;62.95;31.55;;;;;;;;;;5074514;27;21064;-77
2022/12/14 03:08:28;;;;;;;63.97;29.80;;;;;;;;;;5094544;27;20050;-78
2022/12/14 03:10:56;;;;;;;65.38;32.55;;;;;;;;;;5094430;27;20042;-77
2022/12/14 03:13:49;;;;;;;62.83;31.13;;;;;;;;;;5096750;27;20130;-77
2022/12/14 03:16:15;;;;;;;65.65;32.03;;;;;;;;;;5097658;27;20111;-77
2022/12/14 03:19:04;;;;;;;65.93;32.13;;;;;;;;;;5092907;27;20039;-77
2022/12/14 03:21:34;;;;;;;66.40;32.58;;;;;;;;;;5087620;27;20443;-77
2022/12/14 03:24:01;;;;;;;66.10;32.03;;;;;;;;;;5095308;27;20082;-77
2022/12/14 03:26:32;;;;;;;69.28;32.67;;;;;;;;;;5080248;27;20159;-78
2022/12/14 03:29:09;;;;;;;64.90;32.33;;;;;;;;;;5094390;27;20951;-77
2022/12/14 03:31:41;;;;;;;66.22;31.15;;;;;;;;;;5097665;27;20073;-78
2022/12/14 03:34:09;;;;;;;71.38;33.40;;;;;;;;;;5115175;27;20119;-78
2022/12/14 03:36:41;;;;;;;63.03;33.38;;;;;;;;;;5093716;27;20111;-78
2022/12/14 03:39:09;;;;;;;67.80;32.83;;;;;;;;;;5094903;27;20069;-78
2022/12/14 03:41:41;;;;;;;68.07;30.73;;;;;;;;;;5097224;27;20086;-78
2022/12/14 03:44:16;;;;;;;66.18;32.90;;;;;;;;;;5082844;27;20138;-78
2022/12/14 03:46:52;;;;;;;72.28;32.78;;;;;;;;;;5076731;27;20042;-78
2022/12/14 03:49:29;;;;;;;64.97;32.08;;;;;;;;;;5093322;27;20050;-79
2022/12/14 03:51:58;;;;;;;60.92;31.83;;;;;;;;;;5074175;27;20050;-79
2022/12/14 03:54:31;;;;;;;73.63;31.75;;;;;;;;;;5096300;27;21871;-78
2022/12/14 03:57:03;;;;;;;61.35;31.02;;;;;;;;;;5093820;27;20047;-78
2022/12/14 03:59:47;;;;;;;58.33;30.42;;;;;;;;;;5089937;27;20058;-79
2022/12/14 04:02:19;;;;;;;61.55;30.15;;;;;;;;;;5091431;27;20039;-78
2022/12/14 04:05:07;;;;;;;60.13;31.88;;;;;;;;;;5074302;27;20053;-78
2022/12/14 04:07:38;;;;;;;63.53;29.77;;;;;;;;;;5091749;27;20497;-79
2022/12/14 04:18:55;;;;;;;62.03;31.42;;;;;;;;;;5095708;27;20057;-79
2022/12/14 04:21:23;;;;;;;69.18;31.23;;;;;;;;;;5089447;27;20084;-78
2022/12/14 04:26:42;;;;;;;58.17;29.50;;;;;;;;;;5115407;27;20035;-78
2022/12/14 04:32:06;;;;;;;54.63;29.60;;;;;;;;;;5094891;27;20381;-79
2022/12/14 04:34:33;;;;;;;58.33;29.65;;;;;;;;;;5095678;27;20035;-79
2022/12/14 04:37:00;;;;;;;61.40;30.00;;;;;;;;;;5101037;27;21973;-79
2022/12/14 04:39:35;;;;;;;63.65;30.67;;;;;;;;;;5081039;27;20043;-79
2022/12/14 04:42:02;;;;;;;59.38;29.05;;;;;;;;;;5099560;27;20061;-79
2022/12/14 04:44:30;;;;;;;60.40;30.05;;;;;;;;;;5099573;27;20090;-78
2022/12/14 04:46:57;;;;;;;67.65;31.30;;;;;;;;;;5089342;27;21988;-79
2022/12/14 04:49:47;;;;;;;65.75;31.67;;;;;;;;;;5096055;27;20669;-78
2022/12/14 04:52:31;;;;;;;71.40;31.00;;;;;;;;;;5065963;27;20131;-79
2022/12/14 04:54:57;;;;;;;;;;;;;;;;;;5117780;27;20039;-79
2022/12/14 04:57:35;;;;;;;58.78;28.27;;;;;;;;;;5099950;27;19918;-78
2022/12/14 05:00:02;;;;;;;54.33;27.60;;;;;;;;;;5098645;27;20062;-78
2022/12/14 05:02:31;;;;;;;61.40;28.52;;;;;;;;;;5077488;27;20129;-79
2022/12/14 05:05:00;;;;;;;57.17;28.20;;;;;;;;;;5088251;27;20516;-78
2022/12/14 05:07:41;;;;;;;57.78;27.30;;;;;;;;;;5113036;27;20039;-78
2022/12/14 05:10:10;;;;;;;53.95;26.88;;;;;;;;;;5106552;27;21889;-75
2022/12/14 05:12:46;;;;;;;53.75;27.15;;;;;;;;;;5107438;27;20045;-75
2022/12/14 05:15:14;;;;;;;56.15;27.90;;;;;;;;;;5099773;27;20053;-76
2022/12/14 05:17:41;;;;;;;54.78;27.55;;;;;;;;;;5107962;27;20090;-76
2022/12/14 05:20:13;;;;;;;56.15;26.42;;;;;;;;;;5097278;27;20051;-76
2022/12/14 05:22:39;;;;;;;49.00;25.17;;;;;;;;;;5108861;27;20075;-76
2022/12/14 05:25:06;;;;;;;51.35;25.83;;;;;;;;;;5108547;27;20039;-75
2022/12/14 05:27:32;;;;;;;47.65;25.67;;;;;;;;;;5108970;27;20074;-75
2022/12/14 05:29:58;;;;;;;52.30;25.27;;;;;;;;;;5127108;27;20046;-76
2022/12/14 05:32:24;;;;;;;49.05;24.85;;;;;;;;;;5107900;27;20050;-76
2022/12/14 05:34:50;;;;;;;51.45;24.23;;;;;;;;;;5107420;27;20157;-76
2022/12/14 05:37:16;;;;;;;52.70;25.83;;;;;;;;;;5106356;27;21873;-76
2022/12/14 05:39:42;;;;;;;49.90;23.90;;;;;;;;;;5098637;27;20042;-76
2022/12/14 05:42:08;;;;;;;44.03;23.35;;;;;;;;;;5117114;27;20046;-75
2022/12/14 05:44:34;;;;;;;46.75;23.67;;;;;;;;;;5106387;27;20042;-76
2022/12/14 05:47:00;;;;;;;47.20;24.30;;;;;;;;;;5107225;27;20051;-76
2022/12/14 05:49:26;;;;;;;48.05;24.35;;;;;;;;;;5108979;27;20039;-76
2022/12/14 05:51:52;;;;;;;53.95;26.48;;;;;;;;;;5104015;27;20479;-75
2022/12/14 05:54:18;;;;;;;55.88;26.80;;;;;;;;;;5123954;27;20603;-76
2022/12/14 05:56:44;;;;;;;56.90;28.52;;;;;;;;;;5103932;27;20057;-76
2022/12/14 05:59:14;;;;;;;57.90;26.85;;;;;;;;;;5097076;27;20058;-75
2022/12/14 06:01:40;;;;;;;63.15;28.67;;;;;;;;;;5107718;27;20043;-76
2022/12/14 06:04:07;;;;;;;60.30;28.05;;;;;;;;;;5108535;27;20075;-76
2022/12/14 06:06:33;;;;;;;63.15;29.65;;;;;;;;;;5108549;27;20046;-76
2022/12/14 06:08:59;;;;;;;64.05;26.40;;;;;;;;;;5104963;27;20125;-76
2022/12/14 06:11:25;;;;;;;58.97;26.50;;;;;;;;;;5107787;27;20039;-76
2022/12/14 06:13:51;;;;;;;51.50;25.00;;;;;;;;;;5101267;27;20035;-75
2022/12/14 06:16:21;;;;;;;52.97;24.85;;;;;;;;;;5090614;27;20075;-76
2022/12/14 06:18:52;;;;;;;61.22;27.23;;;;;;;;;;5108030;27;20124;-76
2022/12/14 06:21:19;;;;;;;55.97;27.70;;;;;;;;;;5105789;27;20710;-75
2022/12/14 06:23:45;;;;;;;59.67;26.27;;;;;;;;;;5095669;27;20042;-76
2022/12/14 06:26:12;;;;;;;54.70;27.05;;;;;;;;;;5101806;27;20043;-76
2022/12/14 06:28:38;;;;;;;58.10;27.73;;;;;;;;;;5107756;27;20137;-76
2022/12/14 06:31:05;;;;;;;53.00;26.50;;;;;;;;;;5108775;27;20374;-76
2022/12/14 06:33:32;;;;;;;63.13;27.00;;;;;;;;;;5108393;27;20035;-76
2022/12/14 06:35:58;;;;;;;55.67;25.42;;;;;;;;;;5107176;27;20051;-76
2022/12/14 06:38:24;;;;;;;59.40;26.98;;;;;;;;;;5099342;27;20074;-76
2022/12/14 06:40:51;;;;;;;53.05;25.90;;;;;;;;;;5105522;27;20077;-76
2022/12/14 06:43:17;;;;;;;52.90;25.48;;;;;;;;;;5109490;27;20043;-77
2022/12/14 06:45:43;;;;;;;55.13;25.75;;;;;;;;;;5105304;27;20035;-76
2022/12/14 06:48:09;;;;;;;59.90;28.13;;;;;;;;;;5102335;27;20043;-77
2022/12/14 06:50:35;;;;;;;55.92;26.48;;;;;;;;;;5102811;27;20623;-78
2022/12/14 06:53:01;;;;;;;54.13;26.65;;;;;;;;;;5100190;27;20069;-78
2022/12/14 06:55:28;;;;;;;55.60;26.77;;;;;;;;;;5098369;27;20055;-78
2022/12/14 06:57:55;;;;;;;57.08;27.00;;;;;;;;;;5101084;27;20082;-78
2022/12/14 07:00:22;;;;;;;57.15;25.60;;;;;;;;;;5090173;27;20489;-77
2022/12/14 07:02:49;;;;;;;59.30;25.98;;;;;;;;;;5089071;27;20107;-77
2022/12/14 07:05:15;;;;;;;53.33;26.65;;;;;;;;;;5100541;27;20035;-77
2022/12/14 07:07:42;;;;;;;56.05;26.90;;;;;;;;;;5098300;27;20043;-77
2022/12/14 07:10:09;;;;;;;53.50;25.80;;;;;;;;;;5102268;27;20150;-77
2022/12/14 07:12:35;;;;;;;52.22;24.48;;;;;;;;;;5092507;27;20031;-77
2022/12/14 07:15:01;;;;;;;62.30;26.60;;;;;;;;;;5105692;27;20039;-77
2022/12/14 07:17:27;;;;;;;52.13;24.83;;;;;;;;;;5103289;27;20039;-77
2022/12/14 07:19:54;;;;;;;51.38;24.52;;;;;;;;;;5084712;27;20046;-76
2022/12/14 07:22:20;;;;;;;55.85;24.77;;;;;;;;;;5101859;27;20134;-76
2022/12/14 07:24:46;;;;;;;51.88;24.90;;;;;;;;;;5086913;27;20051;-76
2022/12/14 07:27:12;;;;;;;58.55;25.77;;;;;;;;;;5091950;27;20103;-75
2022/12/14 07:29:38;;;;;;;46.00;22.63;;;;;;;;;;5096604;27;20050;-77
2022/12/14 07:32:04;;;;;;;43.50;21.80;;;;;;;;;;5098746;27;20047;-77
2022/12/14 07:34:30;;;;;;;47.15;22.08;;;;;;;;;;5097422;27;20065;-77
2022/12/14 07:36:57;;;;;;;45.78;22.48;;;;;;;;;;5090004;27;22017;-77
2022/12/14 07:39:23;;;;;;;46.55;22.25;;;;;;;;;;5098379;27;20046;-77
2022/12/14 07:41:49;;;;;;;48.67;23.08;;;;;;;;;;5096352;27;20036;-77
2022/12/14 07:44:16;;;;;;;45.53;23.13;;;;;;;;;;5098106;27;20039;-77
2022/12/14 07:46:42;;;;;;;48.15;24.05;;;;;;;;;;5100400;27;20076;-76
2022/12/14 07:49:09;;;;;;;50.90;22.45;;;;;;;;;;5098948;27;20035;-76
2022/12/14 07:51:36;;;;;;;48.53;22.25;;;;;;;;;;5098638;27;20054;-76
2022/12/14 07:54:03;;;;;;;46.45;22.63;;;;;;;;;;5097633;27;20467;-76
2022/12/14 07:56:31;;;;;;;47.03;21.45;;;;;;;;;;5097865;27;20083;-76
2022/12/14 07:58:58;;;;;;;45.08;21.52;;;;;;;;;;5079444;27;20054;-75
2022/12/14 08:01:25;;;;;;;43.15;22.52;;;;;;;;;;5093895;27;20534;-74
2022/12/14 08:03:54;;;;;;;49.10;23.42;;;;;;;;;;5097164;27;20043;-77
2022/12/14 08:06:22;;;;;;;47.33;22.75;;;;;;;;;;5079009;27;20046;-74
2022/12/14 08:08:49;;;;;;;48.15;22.27;;;;;;;;;;5098988;27;21077;-78
2022/12/14 08:11:15;;;;;;;48.70;23.05;;;;;;;;;;5095673;27;20498;-71
2022/12/14 08:13:42;;;;;;;49.88;24.20;;;;;;;;;;5099204;27;20667;-76
2022/12/14 08:16:09;;;;;;;51.90;22.55;;;;;;;;;;5094907;27;20846;-76
2022/12/14 08:18:35;;;;;;;51.97;23.77;;;;;;;;;;5095268;27;20047;-76
2022/12/14 08:21:02;;;;;;;47.00;22.50;;;;;;;;;;5081879;28;20128;-77
2022/12/14 08:23:28;;;;;;;47.45;23.83;;;;;;;;;;5097258;28;20859;-76
2022/12/14 08:25:55;;;;;;;48.10;23.88;;;;;;;;;;5095818;27;20047;-76
2022/12/14 08:28:23;;;;;;;45.05;22.35;;;;;;;;;;5085634;27;20089;-77
2022/12/14 08:30:49;;;;;;;50.72;22.42;;;;;;;;;;5078356;28;20071;-77
2022/12/14 08:33:15;;;;;;;47.03;22.23;;;;;;;;;;5096406;28;20071;-77
2022/12/14 08:35:41;;;;;;;48.95;21.90;;;;;;;;;;5096144;27;20057;-73
2022/12/14 08:38:07;;;;;;;46.53;21.52;;;;;;;;;;5093199;27;20044;-73
2022/12/14 08:40:36;;;;;;;47.08;21.83;;;;;;;;;;5094257;28;20094;-73
2022/12/14 08:43:03;;;;;;;50.42;23.10;;;;;;;;;;5097961;28;20040;-73
2022/12/14 08:45:29;;;;;;;50.20;22.58;;;;;;;;;;5094754;28;20259;-72
2022/12/14 08:47:59;;;;;;;49.78;23.20;;;;;;;;;;5096458;28;20042;-72
2022/12/14 08:50:25;;;;;;;42.47;20.40;;;;;;;;;;5096941;28;20067;-72
2022/12/14 08:52:51;;;;;;;44.35;21.08;;;;;;;;;;5096898;28;20042;-73
2022/12/14 08:55:19;;;;;;;47.85;21.60;;;;;;;;;;5095845;28;20116;-73
2022/12/14 08:57:45;;;;;;;43.88;19.60;;;;;;;;;;5099242;28;20090;-73
2022/12/14 09:00:11;;;;;;;45.42;21.95;;;;;;;;;;5097760;28;20158;-73
2022/12/14 09:02:37;;;;;;;42.50;21.60;;;;;;;;;;5086089;28;20055;-73
2022/12/14 09:05:04;;;;;;;44.08;21.05;;;;;;;;;;5096102;28;20044;-73
2022/12/14 09:07:30;;;;;;;41.38;21.10;;;;;;;;;;5095402;28;20044;-73
2022/12/14 09:09:56;;;;;;;44.90;21.52;;;;;;;;;;5096644;27;20032;-73
2022/12/14 09:12:22;;;;;;;45.17;21.75;;;;;;;;;;5094983;28;20511;-73
2022/12/14 09:14:48;;;;;;;42.10;21.85;;;;;;;;;;5096629;28;20043;-73
2022/12/14 09:17:15;;;;;;;42.55;20.58;;;;;;;;;;5094520;28;20117;-74
2022/12/14 09:19:41;;;;;;;43.90;21.52;;;;;;;;;;5096316;28;20043;-73
2022/12/14 09:22:07;;;;;;;44.60;21.77;;;;;;;;;;5095077;28;20574;-73
2022/12/14 09:24:33;;;;;;;42.92;21.58;;;;;;;;;;5096498;28;20968;-73
2022/12/14 09:27:00;;;;;;;44.25;21.30;;;;;;;;;;5094879;27;20039;-72
2022/12/14 09:29:27;;;;;;;45.17;21.23;;;;;;;;;;5104278;27;20047;-73
2022/12/14 09:31:54;;;;;;;42.67;20.95;;;;;;;;;;5103548;27;20039;-70
2022/12/14 09:34:20;;;;;;;42.10;20.58;;;;;;;;;;5120751;27;20117;-69
2022/12/14 09:36:47;;;;;;;43.72;21.33;;;;;;;;;;5101796;27;20110;-70
2022/12/14 09:39:13;;;;;;;40.83;20.65;;;;;;;;;;5104268;27;20039;-70
2022/12/14 09:41:58;;;;;;;43.60;20.23;;;;;;;;;;5103657;27;20062;-70
2022/12/14 09:44:28;;;;;;;44.78;19.90;;;;;;;;;;5120731;27;20035;-71
2022/12/14 09:47:05;;;;;;;41.83;19.90;;;;;;;;;;5120925;27;20043;-70
2022/12/14 09:49:33;;;;;;;39.58;19.83;;;;;;;;;;5122771;27;20043;-71
2022/12/14 09:52:01;;;;;;;47.53;20.42;;;;;;;;;;5123227;27;20035;-71
2022/12/14 09:54:28;;;;;;;38.25;18.98;;;;;;;;;;5119593;27;20062;-72
2022/12/14 09:56:57;;;;;;;43.85;20.35;;;;;;;;;;5091733;27;20043;-71
2022/12/14 09:59:26;;;;;;;37.20;18.63;;;;;;;;;;5091209;27;20038;-71
2022/12/14 10:01:58;;;;;;;40.25;19.48;;;;;;;;;;5102455;27;20043;-71
2022/12/14 10:04:40;;;;;;;40.30;18.92;;;;;;;;;;5107635;27;20042;-71
2022/12/14 10:07:15;;;;;;;41.40;19.45;;;;;;;;;;5101799;27;20053;-71
2022/12/14 10:09:50;;;;;;;39.40;18.85;;;;;;;;;;5118794;27;21364;-71
2022/12/14 10:12:42;;;;;;;38.55;19.25;;;;;;;;;;5118253;27;20107;-71
2022/12/14 10:15:25;;;;;;;35.65;17.92;;;;;;;;;;5107647;27;20035;-72
2022/12/14 10:17:57;;;;;;;37.22;19.25;;;;;;;;;;5107637;27;21856;-72
2022/12/14 10:20:26;;;;;;;39.70;18.63;;;;;;;;;;5105459;27;21303;-72
2022/12/14 10:22:52;;;;;;;35.42;18.27;;;;;;;;;;5106787;27;20380;-72
2022/12/14 10:25:21;;;;;;;35.03;18.40;;;;;;;;;;5107442;27;20038;-72
2022/12/14 10:27:50;;;;;;;33.67;16.58;;;;;;;;;;5104047;27;20060;-72
2022/12/14 10:30:17;;;;;;;34.22;17.23;;;;;;;;;;5105364;27;20043;-72
2022/12/14 10:32:51;;;;;;;36.70;17.95;;;;;;;;;;5104036;27;20042;-72
2022/12/14 10:35:19;;;;;;;37.85;17.90;;;;;;;;;;5104943;27;20233;-72
2022/12/14 10:37:48;;;;;;;30.90;17.33;;;;;;;;;;5103094;27;22057;-72
2022/12/14 10:40:20;;;;;;;30.17;16.60;;;;;;;;;;5103993;27;20047;-72
2022/12/14 10:42:55;;;;;;;31.13;15.80;;;;;;;;;;5103852;27;20043;-72
2022/12/14 10:45:28;;;;;;;28.05;16.80;;;;;;;;;;5101317;27;20046;-72
2022/12/14 10:48:05;;;;;;;29.38;16.75;;;;;;;;;;5103442;27;20046;-72
2022/12/14 10:50:58;;;;;;;36.15;18.08;;;;;;;;;;5101559;27;20080;-72
2022/12/14 10:53:37;;;;;;;29.98;17.17;;;;;;;;;;5088151;27;20055;-73
2022/12/14 10:56:07;;;;;;;30.15;16.38;;;;;;;;;;5098893;27;20080;-73
2022/12/14 10:58:33;;;;;;;31.70;17.23;;;;;;;;;;5097403;27;20054;-73
2022/12/14 11:01:00;;;;;;;26.77;15.70;;;;;;;;;;5100722;27;20050;-73
2022/12/14 11:03:27;;;;;;;29.52;17.00;;;;;;;;;;5100481;27;20042;-73
2022/12/14 11:05:56;;;;;;;27.55;16.15;;;;;;;;;;5097118;27;20126;-73
2022/12/14 11:08:42;;;;;;;24.02;14.50;;;;;;;;;;5102138;27;20039;-73
2022/12/14 11:11:10;;;;;;;29.20;15.07;;;;;;;;;;5099571;27;20100;-72
2022/12/14 11:13:36;;;;;;;34.72;15.95;;;;;;;;;;5098362;27;20035;-73
2022/12/14 11:16:16;;;;;;;27.38;16.17;;;;;;;;;;5095750;27;20058;-73
2022/12/14 11:18:42;;;;;;;28.13;14.80;;;;;;;;;;5097164;27;20051;-73
2022/12/14 11:21:13;;;;;;;26.88;14.10;;;;;;;;;;5099451;27;20048;-73
2022/12/14 11:23:40;;;;;;;26.35;16.00;;;;;;;;;;5102440;27;20042;-73
2022/12/14 11:26:16;;;;;;;24.88;15.00;;;;;;;;;;5102056;27;20055;-72
2022/12/14 11:28:47;;;;;;;26.42;15.55;;;;;;;;;;5096782;27;20056;-73
2022/12/14 11:31:21;;;;;;;27.88;15.75;;;;;;;;;;5104303;27;21967;-74
2022/12/14 11:33:49;;;;;;;30.25;17.60;;;;;;;;;;5096063;27;20051;-73
2022/12/14 11:36:24;;;;;;;26.17;15.80;;;;;;;;;;5097088;27;20039;-73
2022/12/14 11:38:54;;;;;;;35.38;16.05;;;;;;;;;;5097652;27;20049;-73
2022/12/14 11:41:21;;;;;;;30.55;17.55;;;;;;;;;;5097866;27;20096;-74
2022/12/14 11:44:00;;;;;;;28.50;17.95;;;;;;;;;;5097870;27;20058;-73
2022/12/14 11:46:44;;;;;;;26.38;16.33;;;;;;;;;;5101720;27;20046;-71
2022/12/14 11:49:32;;;;;;;34.13;17.75;;;;;;;;;;5099994;27;20352;-71
2022/12/14 11:52:06;;;;;;;28.92;16.98;;;;;;;;;;5089135;27;20044;-72
2022/12/14 11:54:33;;;;;;;26.00;16.90;;;;;;;;;;5102611;27;20047;-72
2022/12/14 11:57:01;;;;;;;27.52;15.93;;;;;;;;;;5100551;27;20473;-72
2022/12/14 11:59:30;;;;;;;28.70;17.65;;;;;;;;;;5101453;27;20043;-72
2022/12/14 12:01:56;;;;;;;27.48;17.10;;;;;;;;;;5101763;27;20082;-72
2022/12/14 12:04:22;;;;;;;27.20;18.00;;;;;;;;;;5099439;27;21078;-72
2022/12/14 12:06:49;;;;;;;29.95;19.10;;;;;;;;;;5100883;27;20067;-72
2022/12/14 12:09:27;;;;;;;27.73;18.40;;;;;;;;;;5095562;27;20042;-72
2022/12/14 12:11:53;;;;;;;29.52;19.35;;;;;;;;;;5085896;28;20073;-72
2022/12/14 12:14:28;;;;;;;28.23;18.38;;;;;;;;;;5102575;27;20091;-72
2022/12/14 12:16:55;;;;;;;30.33;18.25;;;;;;;;;;5101026;27;20047;-72
2022/12/14 12:19:21;;;;;;;29.60;18.67;;;;;;;;;;5102074;27;20039;-72
2022/12/14 12:21:47;;;;;;;27.67;18.15;;;;;;;;;;5101383;27;20054;-73
2022/12/14 12:24:26;;;;;;;27.83;17.67;;;;;;;;;;5100918;27;20119;-73
2022/12/14 12:26:54;;;;;;;29.50;18.90;;;;;;;;;;5102499;27;20096;-72
2022/12/14 12:29:39;;;;;;;30.30;18.23;;;;;;;;;;5101885;27;20503;-72
2022/12/14 12:32:24;;;;;;;32.08;18.80;;;;;;;;;;5101473;28;20039;-72
2022/12/14 12:35:13;;;;;;;30.08;18.27;;;;;;;;;;5083223;28;20043;-72
2022/12/14 12:37:43;;;;;;;31.10;18.95;;;;;;;;;;5097014;27;20071;-72
2022/12/14 12:40:13;;;;;;;29.17;18.23;;;;;;;;;;5089574;28;20047;-72
2022/12/14 12:42:48;;;;;;;28.98;18.63;;;;;;;;;;5102313;28;20107;-72
2022/12/14 12:45:24;;;;;;;32.00;19.45;;;;;;;;;;5099342;28;20459;-72
2022/12/14 12:48:03;;;;;;;28.67;18.83;;;;;;;;;;5100464;28;20035;-72
2022/12/14 12:50:31;;;;;;;28.88;19.27;;;;;;;;;;5106560;28;20219;-72
2022/12/14 12:53:03;;;;;;;29.35;17.13;;;;;;;;;;5091059;28;20078;-71
2022/12/14 12:55:31;;;;;;;31.77;19.80;;;;;;;;;;5103219;28;20059;-72
2022/12/14 12:57:58;;;;;;;36.83;20.05;;;;;;;;;;5098461;28;20134;-71
2022/12/14 13:00:26;;;;;;;35.78;20.08;;;;;;;;;;5101454;28;20057;-72
2022/12/14 13:03:00;;;;;;;31.00;19.38;;;;;;;;;;5101998;27;20154;-72
2022/12/14 13:05:28;;;;;;;34.67;18.88;;;;;;;;;;5088833;27;20544;-71
2022/12/14 13:08:04;;;;;;;31.25;19.58;;;;;;;;;;5105345;27;20501;-72
2022/12/14 13:10:31;;;;;;;32.67;19.85;;;;;;;;;;5100597;27;20036;-72
2022/12/14 13:13:08;;;;;;;30.95;18.83;;;;;;;;;;5105681;27;20071;-72
2022/12/14 13:15:41;;;;;;;32.42;19.73;;;;;;;;;;5087766;27;20044;-71
2022/12/14 13:18:25;;;;;;;33.88;19.17;;;;;;;;;;5105928;27;20539;-72
2022/12/14 13:20:52;;;;;;;30.85;19.13;;;;;;;;;;5104645;27;20114;-72
2022/12/14 13:23:20;;;;;;;32.38;19.80;;;;;;;;;;5105526;27;20135;-72
2022/12/14 13:25:46;;;;;;;34.25;19.90;;;;;;;;;;5106600;27;20813;-72
2022/12/14 13:28:12;;;;;;;38.13;19.38;;;;;;;;;;5104195;27;20087;-72
2022/12/14 13:30:44;;;;;;;32.05;18.25;;;;;;;;;;5103097;27;20124;-72
2022/12/14 13:33:19;;;;;;;31.83;18.83;;;;;;;;;;5106828;27;20043;-71
2022/12/14 13:36:01;;;;;;;32.78;19.92;;;;;;;;;;5106147;27;20093;-71
2022/12/14 13:38:47;;;;;;;33.63;19.50;;;;;;;;;;5106581;27;20124;-72
2022/12/14 13:41:13;;;;;;;32.63;19.45;;;;;;;;;;5105458;27;20133;-72
2022/12/14 13:43:58;;;;;;;34.35;19.23;;;;;;;;;;5105758;27;20165;-72
2022/12/14 13:46:26;;;;;;;30.60;18.75;;;;;;;;;;5104513;27;20066;-72
2022/12/14 13:48:58;;;;;;;37.08;19.77;;;;;;;;;;5109637;27;20055;-72
2022/12/14 13:51:27;;;;;;;33.67;19.02;;;;;;;;;;5105488;27;20039;-72
2022/12/14 13:53:57;;;;;;;34.70;20.42;;;;;;;;;;5106009;27;20065;-72
2022/12/14 13:56:25;;;;;;;31.92;18.42;;;;;;;;;;5105076;27;20047;-72
2022/12/14 13:58:53;;;;;;;43.22;23.08;;;;;;;;;;5105518;27;20040;-73
2022/12/14 14:01:38;;;;;;;40.50;23.90;;;;;;;;;;5102254;27;20267;-73
2022/12/14 14:04:13;;;;;;;45.45;26.85;;;;;;;;;;5103568;27;20131;-73
2022/12/14 14:06:41;;;;;;;34.55;19.95;;;;;;;;;;5104053;27;20482;-72
2022/12/14 14:09:25;;;;;;;33.03;19.45;;;;;;;;;;5104429;27;20129;-72
2022/12/14 14:12:24;;;;;;;31.50;18.33;;;;;;;;;;5109735;27;20126;-73
2022/12/14 14:14:52;;;;;;;35.38;19.63;;;;;;;;;;5073927;27;20071;-73
2022/12/14 14:17:21;;;;;;;36.42;20.95;;;;;;;;;;5103516;27;20129;-73
2022/12/14 14:19:47;;;;;;;38.20;22.00;;;;;;;;;;5104277;27;20039;-73
2022/12/14 14:22:26;;;;;;;36.55;19.38;;;;;;;;;;5103008;27;20445;-73
2022/12/14 14:24:58;;;;;;;36.97;20.08;;;;;;;;;;5103594;27;20539;-73
2022/12/14 14:28:02;;;;;;;36.72;20.10;;;;;;;;;;5105384;27;20062;-73
2022/12/14 14:30:33;;;;;;;35.70;21.15;;;;;;;;;;5051258;28;20086;-73
2022/12/14 14:32:59;;;;;;;36.20;21.05;;;;;;;;;;5035955;28;20099;-72
2022/12/14 14:35:29;;;;;;;36.15;21.50;;;;;;;;;;5071158;27;20050;-73
2022/12/14 14:37:58;;;;;;;36.08;20.73;;;;;;;;;;5105239;27;20134;-72
2022/12/14 14:40:28;;;;;;;36.42;20.90;;;;;;;;;;5105643;27;20054;-73
2022/12/14 14:43:06;;;;;;;39.90;20.80;;;;;;;;;;5105553;27;20039;-73
2022/12/14 14:45:35;;;;;;;35.63;21.38;;;;;;;;;;5102486;27;20043;-72
2022/12/14 14:48:07;;;;;;;79.20;42.35;;;;;;;;;;5106691;27;20582;-72
2022/12/14 14:50:38;;;;;;;91.50;52.35;;;;;;;;;;5124658;27;20076;-73